Terminal Aerodrome Forecast
Issued by NWS Jacksonville, FL

Home | Current Version | Previous Version | Text Only | Print | Product List | Glossary On
Versions: 1 2 3 4 5 6 7 8 9 10 11 12 13 14 15 16 17 18 19 20 21 22 23 24 25 26
000
FTUS42 KJAX 022323
TAFJAX
TAF
KJAX 022323Z 0300/0324 VRB06KT P6SM VCTS SCT025 OVC050CB
      TEMPO 0300/0301 3SM SHRA OVC025
     FM030100 20005KT P6SM VCSH SCT040 OVC120
     FM030800 00000KT P6SM OVC250
     FM031400 23004KT P6SM SCT030 BKN250
     FM031800 11008KT P6SM BKN050=

USA.gov is the U.S. government's official web portal to all federal, state and local government web resources and services.